sensor_id;sensor_type;location;lat;lon;timestamp;pressure;altitude;pressure_sealevel;temperature;humidity
19128;BME280;9696;53.686;10.094;2023-02-22T00:01:12;101476.25;;;7.49;100.00
19128;BME280;9696;53.686;10.094;2023-02-22T00:03:50;101476.44;;;7.46;100.00
19128;BME280;9696;53.686;10.094;2023-02-22T00:06:22;101477.75;;;7.39;100.00
19128;BME280;9696;53.686;10.094;2023-02-22T00:08:52;101473.91;;;7.44;100.00
19128;BME280;9696;53.686;10.094;2023-02-22T00:11:22;101478.56;;;7.39;100.00
19128;BME280;9696;53.686;10.094;2023-02-22T00:13:52;101469.75;;;7.42;100.00
19128;BME280;9696;53.686;10.094;2023-02-22T00:16:24;101476.53;;;7.44;100.00
19128;BME280;9696;53.686;10.094;2023-02-22T00:18:54;101468.78;;;7.43;100.00
19128;BME280;9696;53.686;10.094;2023-02-22T00:21:24;101465.91;;;7.47;100.00
19128;BME280;9696;53.686;10.094;2023-02-22T00:23:53;101465.72;;;7.36;100.00
19128;BME280;9696;53.686;10.094;2023-02-22T00:26:23;101463.56;;;7.43;100.00
19128;BME280;9696;53.686;10.094;2023-02-22T00:28:53;101452.69;;;7.50;100.00
19128;BME280;9696;53.686;10.094;2023-02-22T00:31:24;101448.09;;;7.54;100.00
19128;BME280;9696;53.686;10.094;2023-02-22T00:33:53;101446.63;;;7.50;100.00
19128;BME280;9696;53.686;10.094;2023-02-22T00:36:23;101454.09;;;7.42;100.00
19128;BME280;9696;53.686;10.094;2023-02-22T00:38:53;101445.00;;;7.47;100.00
19128;BME280;9696;53.686;10.094;2023-02-22T00:41:22;101445.00;;;7.47;100.00
19128;BME280;9696;53.686;10.094;2023-02-22T00:43:51;101448.66;;;7.45;100.00
19128;BME280;9696;53.686;10.094;2023-02-22T00:46:20;101451.34;;;7.43;100.00
19128;BME280;9696;53.686;10.094;2023-02-22T00:48:49;101450.63;;;7.41;100.00
19128;BME280;9696;53.686;10.094;2023-02-22T00:51:18;101459.09;;;7.45;100.00
19128;BME280;9696;53.686;10.094;2023-02-22T00:53:52;101462.56;;;7.45;100.00
19128;BME280;9696;53.686;10.094;2023-02-22T00:56:21;101459.56;;;7.51;100.00
19128;BME280;9696;53.686;10.094;2023-02-22T00:58:51;101462.94;;;7.53;100.00
19128;BME280;9696;53.686;10.094;2023-02-22T01:01:20;101462.09;;;7.53;100.00
19128;BME280;9696;53.686;10.094;2023-02-22T01:03:50;101464.88;;;7.50;100.00
19128;BME280;9696;53.686;10.094;2023-02-22T01:06:20;101465.53;;;7.53;100.00
19128;BME280;9696;53.686;10.094;2023-02-22T01:08:53;101455.09;;;7.53;100.00
19128;BME280;9696;53.686;10.094;2023-02-22T01:11:24;101460.78;;;7.46;100.00
19128;BME280;9696;53.686;10.094;2023-02-22T01:13:53;101452.69;;;7.50;100.00
19128;BME280;9696;53.686;10.094;2023-02-22T01:16:23;101454.34;;;7.51;100.00
19128;BME280;9696;53.686;10.094;2023-02-22T01:18:52;101450.50;;;7.43;100.00
19128;BME280;9696;53.686;10.094;2023-02-22T01:21:21;101456.09;;;7.51;100.00
19128;BME280;9696;53.686;10.094;2023-02-22T01:23:52;101450.25;;;7.47;100.00
19128;BME280;9696;53.686;10.094;2023-02-22T01:26:21;101451.09;;;7.48;100.00
19128;BME280;9696;53.686;10.094;2023-02-22T01:28:52;101452.41;;;7.41;100.00
19128;BME280;9696;53.686;10.094;2023-02-22T01:31:21;101451.09;;;7.48;100.00
19128;BME280;9696;53.686;10.094;2023-02-22T01:33:51;101454.09;;;7.42;100.00
19128;BME280;9696;53.686;10.094;2023-02-22T01:36:20;101445.41;;;7.41;100.00
19128;BME280;9696;53.686;10.094;2023-02-22T01:38:49;101445.59;;;7.38;100.00
19128;BME280;9696;53.686;10.094;2023-02-22T01:41:21;101436.47;;;7.45;100.00
19128;BME280;9696;53.686;10.094;2023-02-22T01:43:50;101442.31;;;7.49;100.00
19128;BME280;9696;53.686;10.094;2023-02-22T01:46:22;101431.47;;;7.55;100.00
19128;BME280;9696;53.686;10.094;2023-02-22T01:48:55;101437.53;;;7.55;100.00
19128;BME280;9696;53.686;10.094;2023-02-22T01:51:28;101433.28;;;7.40;100.00
19128;BME280;9696;53.686;10.094;2023-02-22T01:54:02;101430.75;;;7.53;100.00
19128;BME280;9696;53.686;10.094;2023-02-22T01:56:38;101433.81;;;7.59;100.00
19128;BME280;9696;53.686;10.094;2023-02-22T01:59:10;101424.78;;;7.51;100.00
19128;BME280;9696;53.686;10.094;2023-02-22T02:01:40;101432.72;;;7.49;100.00
19128;BME280;9696;53.686;10.094;2023-02-22T02:04:13;101430.41;;;7.45;100.00
19128;BME280;9696;53.686;10.094;2023-02-22T02:06:45;101433.56;;;7.50;100.00
19128;BME280;9696;53.686;10.094;2023-02-22T02:09:20;101430.31;;;7.46;100.00
19128;BME280;9696;53.686;10.094;2023-02-22T02:11:55;101431.44;;;7.42;100.00
19128;BME280;9696;53.686;10.094;2023-02-22T02:14:27;101423.13;;;7.50;100.00
19128;BME280;9696;53.686;10.094;2023-02-22T02:17:00;101415.66;;;7.44;100.00
19128;BME280;9696;53.686;10.094;2023-02-22T02:19:37;101426.22;;;7.42;100.00
19128;BME280;9696;53.686;10.094;2023-02-22T02:22:37;101416.59;;;7.43;100.00
19128;BME280;9696;53.686;10.094;2023-02-22T02:29:04;101416.66;;;7.55;100.00
19128;BME280;9696;53.686;10.094;2023-02-22T02:32:19;101409.66;;;7.56;100.00
19128;BME280;9696;53.686;10.094;2023-02-22T02:34:57;101412.69;;;7.50;100.00
19128;BME280;9696;53.686;10.094;2023-02-22T02:37:34;101413.22;;;7.55;100.00
19128;BME280;9696;53.686;10.094;2023-02-22T02:40:11;101413.47;;;7.65;100.00
19128;BME280;9696;53.686;10.094;2023-02-22T02:42:52;101413.59;;;7.49;100.00
19128;BME280;9696;53.686;10.094;2023-02-22T02:45:26;101414.16;;;7.54;100.00
19128;BME280;9696;53.686;10.094;2023-02-22T02:47:58;101406.78;;;7.61;100.00
19128;BME280;9696;53.686;10.094;2023-02-22T02:50:34;101407.25;;;7.53;100.00
19128;BME280;9696;53.686;10.094;2023-02-22T02:53:07;101401.47;;;7.48;100.00
19128;BME280;9696;53.686;10.094;2023-02-22T02:55:37;101395.91;;;7.40;100.00
19128;BME280;9696;53.686;10.094;2023-02-22T02:58:07;101397.19;;;7.47;100.00
19128;BME280;9696;53.686;10.094;2023-02-22T03:00:39;101393.84;;;7.45;100.00
19128;BME280;9696;53.686;10.094;2023-02-22T03:03:32;101392.94;;;7.46;100.00
19128;BME280;9696;53.686;10.094;2023-02-22T03:06:29;101390.69;;;7.40;100.00
19128;BME280;9696;53.686;10.094;2023-02-22T03:09:11;101389.97;;;7.38;100.00
19128;BME280;9696;53.686;10.094;2023-02-22T03:11:50;101385.66;;;7.37;100.00
19128;BME280;9696;53.686;10.094;2023-02-22T03:14:36;101387.72;;;7.46;100.00
19128;BME280;9696;53.686;10.094;2023-02-22T03:17:15;101379.75;;;7.47;100.00
19128;BME280;9696;53.686;10.094;2023-02-22T03:19:58;101377.91;;;7.49;100.00
19128;BME280;9696;53.686;10.094;2023-02-22T03:22:38;101374.25;;;7.52;100.00
19128;BME280;9696;53.686;10.094;2023-02-22T03:25:16;101371.94;;;7.47;100.00
19128;BME280;9696;53.686;10.094;2023-02-22T03:27:49;101381.94;;;7.41;100.00
19128;BME280;9696;53.686;10.094;2023-02-22T03:30:23;101374.19;;;7.39;100.00
19128;BME280;9696;53.686;10.094;2023-02-22T03:32:57;101364.38;;;7.43;100.00
19128;BME280;9696;53.686;10.094;2023-02-22T03:35:32;101366.53;;;7.50;100.00
19128;BME280;9696;53.686;10.094;2023-02-22T03:38:07;101364.22;;;7.46;100.00
19128;BME280;9696;53.686;10.094;2023-02-22T03:40:41;101358.03;;;7.47;100.00
19128;BME280;9696;53.686;10.094;2023-02-22T03:43:15;101372.41;;;7.54;100.00
19128;BME280;9696;53.686;10.094;2023-02-22T03:45:48;101362.44;;;7.46;100.00
19128;BME280;9696;53.686;10.094;2023-02-22T03:48:22;101359.47;;;7.38;100.00
19128;BME280;9696;53.686;10.094;2023-02-22T03:50:55;101373.06;;;7.43;100.00
19128;BME280;9696;53.686;10.094;2023-02-22T03:53:25;101361.88;;;7.41;100.00
19128;BME280;9696;53.686;10.094;2023-02-22T03:55:58;101366.81;;;7.46;100.00
19128;BME280;9696;53.686;10.094;2023-02-22T03:58:31;101368.41;;;7.48;100.00
19128;BME280;9696;53.686;10.094;2023-02-22T04:01:02;101369.16;;;7.50;100.00
19128;BME280;9696;53.686;10.094;2023-02-22T04:03:31;101362.03;;;7.52;100.00
19128;BME280;9696;53.686;10.094;2023-02-22T04:06:03;101366.56;;;7.63;100.00
19128;BME280;9696;53.686;10.094;2023-02-22T04:08:33;101368.47;;;7.61;100.00
19128;BME280;9696;53.686;10.094;2023-02-22T04:11:03;101368.75;;;7.56;100.00
19128;BME280;9696;53.686;10.094;2023-02-22T04:13:33;101370.31;;;7.59;100.00
19128;BME280;9696;53.686;10.094;2023-02-22T04:16:02;101376.28;;;7.61;100.00
19128;BME280;9696;53.686;10.094;2023-02-22T04:18:32;101364.81;;;7.64;100.00
19128;BME280;9696;53.686;10.094;2023-02-22T04:21:03;101370.72;;;7.53;100.00
19128;BME280;9696;53.686;10.094;2023-02-22T04:23:40;101376.03;;;7.51;100.00
19128;BME280;9696;53.686;10.094;2023-02-22T04:26:10;101375.00;;;7.54;100.00
19128;BME280;9696;53.686;10.094;2023-02-22T04:28:40;101374.69;;;7.58;100.00
19128;BME280;9696;53.686;10.094;2023-02-22T04:31:17;101373.53;;;7.50;100.00
19128;BME280;9696;53.686;10.094;2023-02-22T04:33:47;101372.56;;;7.51;100.00
19128;BME280;9696;53.686;10.094;2023-02-22T04:36:21;101372.41;;;7.54;100.00
19128;BME280;9696;53.686;10.094;2023-02-22T04:38:50;101378.75;;;7.50;100.00
19128;BME280;9696;53.686;10.094;2023-02-22T04:41:19;101370.22;;;7.61;100.00
19128;BME280;9696;53.686;10.094;2023-02-22T04:43:51;101377.00;;;7.63;100.00
19128;BME280;9696;53.686;10.094;2023-02-22T04:46:23;101371.16;;;7.59;100.00
19128;BME280;9696;53.686;10.094;2023-02-22T04:48:53;101364.00;;;7.49;100.00
19128;BME280;9696;53.686;10.094;2023-02-22T04:51:26;101366.53;;;7.50;100.00
19128;BME280;9696;53.686;10.094;2023-02-22T04:54:21;101362.00;;;7.67;100.00
19128;BME280;9696;53.686;10.094;2023-02-22T04:56:51;101365.28;;;7.56;100.00
19128;BME280;9696;53.686;10.094;2023-02-22T04:59:20;101363.03;;;7.64;100.00
19128;BME280;9696;53.686;10.094;2023-02-22T05:01:55;101359.69;;;7.62;100.00
19128;BME280;9696;53.686;10.094;2023-02-22T05:04:24;101359.69;;;7.62;100.00
19128;BME280;9696;53.686;10.094;2023-02-22T05:06:55;101355.28;;;7.63;100.00
19128;BME280;9696;53.686;10.094;2023-02-22T05:09:24;101354.00;;;7.55;100.00
19128;BME280;9696;53.686;10.094;2023-02-22T05:11:53;101357.47;;;7.56;100.00
19128;BME280;9696;53.686;10.094;2023-02-22T05:14:22;101353.63;;;7.62;100.00
19128;BME280;9696;53.686;10.094;2023-02-22T05:16:54;101359.34;;;7.54;100.00
19128;BME280;9696;53.686;10.094;2023-02-22T05:19:23;101356.41;;;7.58;100.00
19128;BME280;9696;53.686;10.094;2023-02-22T05:21:54;101350.28;;;7.59;100.00
19128;BME280;9696;53.686;10.094;2023-02-22T05:24:24;101356.63;;;7.55;100.00
19128;BME280;9696;53.686;10.094;2023-02-22T05:26:53;101357.66;;;7.53;100.00
19128;BME280;9696;53.686;10.094;2023-02-22T05:29:22;101357.31;;;7.45;100.00
19128;BME280;9696;53.686;10.094;2023-02-22T05:31:51;101354.97;;;7.54;100.00
19128;BME280;9696;53.686;10.094;2023-02-22T05:34:21;101363.09;;;7.50;100.00
19128;BME280;9696;53.686;10.094;2023-02-22T05:36:50;101355.91;;;7.53;100.00
19128;BME280;9696;53.686;10.094;2023-02-22T05:39:21;101355.97;;;7.52;100.00
19128;BME280;9696;53.686;10.094;2023-02-22T05:41:50;101357.81;;;7.64;100.00
19128;BME280;9696;53.686;10.094;2023-02-22T05:44:19;101367.69;;;7.59;100.00
19128;BME280;9696;53.686;10.094;2023-02-22T05:46:48;101357.47;;;7.56;100.00
19128;BME280;9696;53.686;10.094;2023-02-22T05:49:17;101355.69;;;7.56;100.00
19128;BME280;9696;53.686;10.094;2023-02-22T05:51:46;101353.28;;;7.53;100.00
19128;BME280;9696;53.686;10.094;2023-02-22T05:54:15;101345.88;;;7.60;100.00
19128;BME280;9696;53.686;10.094;2023-02-22T05:56:46;101354.84;;;7.56;100.00
19128;BME280;9696;53.686;10.094;2023-02-22T05:59:15;101345.25;;;7.56;100.00
19128;BME280;9696;53.686;10.094;2023-02-22T06:01:45;101350.28;;;7.59;100.00
19128;BME280;9696;53.686;10.094;2023-02-22T06:04:14;101348.91;;;7.54;100.00
19128;BME280;9696;53.686;10.094;2023-02-22T06:06:43;101340.66;;;7.60;100.00
19128;BME280;9696;53.686;10.094;2023-02-22T06:09:12;101341.41;;;7.62;100.00
19128;BME280;9696;53.686;10.094;2023-02-22T06:11:41;101352.25;;;7.56;100.00
19128;BME280;9696;53.686;10.094;2023-02-22T06:14:12;101346.72;;;7.61;100.00
19128;BME280;9696;53.686;10.094;2023-02-22T06:16:41;101342.06;;;7.66;100.00
19128;BME280;9696;53.686;10.094;2023-02-22T06:19:10;101357.19;;;7.61;100.00
19128;BME280;9696;53.686;10.094;2023-02-22T06:21:39;101349.41;;;7.73;100.00
19128;BME280;9696;53.686;10.094;2023-02-22T06:24:09;101345.59;;;7.65;100.00
19128;BME280;9696;53.686;10.094;2023-02-22T06:26:38;101349.91;;;7.66;100.00
19128;BME280;9696;53.686;10.094;2023-02-22T06:29:07;101353.84;;;7.71;100.00
19128;BME280;9696;53.686;10.094;2023-02-22T06:31:38;101355.25;;;7.77;100.00
19128;BME280;9696;53.686;10.094;2023-02-22T06:34:07;101351.38;;;7.70;100.00
19128;BME280;9696;53.686;10.094;2023-02-22T06:36:36;101356.13;;;7.63;100.00
19128;BME280;9696;53.686;10.094;2023-02-22T06:39:05;101349.97;;;7.64;100.00
19128;BME280;9696;53.686;10.094;2023-02-22T06:41:37;101353.34;;;7.66;100.00
19128;BME280;9696;53.686;10.094;2023-02-22T06:44:07;101343.03;;;7.77;100.00
19128;BME280;9696;53.686;10.094;2023-02-22T06:46:38;101346.66;;;7.75;100.00
19128;BME280;9696;53.686;10.094;2023-02-22T06:49:07;101348.47;;;7.74;100.00
19128;BME280;9696;53.686;10.094;2023-02-22T06:51:37;101354.13;;;7.81;100.00
19128;BME280;9696;53.686;10.094;2023-02-22T06:54:06;101350.97;;;7.76;100.00
19128;BME280;9696;53.686;10.094;2023-02-22T06:56:35;101346.38;;;7.79;100.00
19128;BME280;9696;53.686;10.094;2023-02-22T06:59:04;101350.66;;;7.80;100.00
19128;BME280;9696;53.686;10.094;2023-02-22T07:01:33;101352.06;;;7.86;100.00
19128;BME280;9696;53.686;10.094;2023-02-22T07:04:04;101352.97;;;7.85;100.00
19128;BME280;9696;53.686;10.094;2023-02-22T07:06:33;101356.44;;;7.85;100.00
19128;BME280;9696;53.686;10.094;2023-02-22T07:09:03;101348.78;;;7.82;100.00
19128;BME280;9696;53.686;10.094;2023-02-22T07:11:32;101355.81;;;7.82;100.00
19128;BME280;9696;53.686;10.094;2023-02-22T07:14:01;101356.22;;;7.88;100.00
19128;BME280;9696;53.686;10.094;2023-02-22T07:16:31;101352.13;;;7.84;100.00
19128;BME280;9696;53.686;10.094;2023-02-22T07:19:00;101351.97;;;8.00;100.00
19128;BME280;9696;53.686;10.094;2023-02-22T07:21:31;101351.13;;;7.99;100.00
19128;BME280;9696;53.686;10.094;2023-02-22T07:24:00;101358.53;;;7.93;100.00
19128;BME280;9696;53.686;10.094;2023-02-22T07:26:37;101357.50;;;7.95;100.00
19128;BME280;9696;53.686;10.094;2023-02-22T07:29:07;101346.63;;;7.89;100.00
19128;BME280;9696;53.686;10.094;2023-02-22T07:31:38;101351.34;;;7.96;100.00
19128;BME280;9696;53.686;10.094;2023-02-22T07:34:07;101351.34;;;7.96;100.00
19128;BME280;9696;53.686;10.094;2023-02-22T07:36:37;101347.88;;;7.96;100.00
19128;BME280;9696;53.686;10.094;2023-02-22T07:39:06;101346.97;;;7.97;100.00
19128;BME280;9696;53.686;10.094;2023-02-22T07:41:36;101347.59;;;8.00;100.00
19128;BME280;9696;53.686;10.094;2023-02-22T07:44:14;101342.47;;;7.99;100.00
19128;BME280;9696;53.686;10.094;2023-02-22T07:46:46;101351.34;;;7.96;100.00
19128;BME280;9696;53.686;10.094;2023-02-22T07:49:17;101344.03;;;8.01;100.00
19128;BME280;9696;53.686;10.094;2023-02-22T07:51:47;101338.63;;;8.04;100.00
19128;BME280;9696;53.686;10.094;2023-02-22T07:54:16;101347.91;;;8.09;100.00
19128;BME280;9696;53.686;10.094;2023-02-22T07:56:47;101351.78;;;8.16;100.00
19128;BME280;9696;53.686;10.094;2023-02-22T07:59:16;101345.44;;;8.20;100.00
19128;BME280;9696;53.686;10.094;2023-02-22T08:01:45;101346.56;;;8.16;100.00
19128;BME280;9696;53.686;10.094;2023-02-22T08:04:16;101339.97;;;8.10;100.00
19128;BME280;9696;53.686;10.094;2023-02-22T08:06:47;101332.91;;;8.25;100.00
19128;BME280;9696;53.686;10.094;2023-02-22T08:09:17;101330.97;;;8.14;100.00
19128;BME280;9696;53.686;10.094;2023-02-22T08:11:46;101335.38;;;8.26;100.00
19128;BME280;9696;53.686;10.094;2023-02-22T08:14:15;101330.38;;;8.23;100.00
19128;BME280;9696;53.686;10.094;2023-02-22T08:16:44;101322.38;;;8.39;100.00
19128;BME280;9696;53.686;10.094;2023-02-22T08:19:14;101329.47;;;8.49;100.00
19128;BME280;9696;53.686;10.094;2023-02-22T08:21:43;101326.34;;;8.32;100.00
19128;BME280;9696;53.686;10.094;2023-02-22T08:24:13;101328.66;;;8.49;100.00
19128;BME280;9696;53.686;10.094;2023-02-22T08:26:44;101328.13;;;8.31;100.00
19128;BME280;9696;53.686;10.094;2023-02-22T08:29:13;101325.09;;;8.37;100.00
19128;BME280;9696;53.686;10.094;2023-02-22T08:31:49;101321.13;;;8.32;100.00
19128;BME280;9696;53.686;10.094;2023-02-22T08:34:20;101325.41;;;8.33;100.00
19128;BME280;9696;53.686;10.094;2023-02-22T08:36:51;101321.00;;;8.46;100.00
19128;BME280;9696;53.686;10.094;2023-02-22T08:39:22;101325.63;;;8.55;100.00
19128;BME280;9696;53.686;10.094;2023-02-22T08:41:51;101319.00;;;8.62;100.00
19128;BME280;9696;53.686;10.094;2023-02-22T08:44:20;101321.53;;;8.64;100.00
19128;BME280;9696;53.686;10.094;2023-02-22T08:46:52;101312.44;;;8.57;100.00
19128;BME280;9696;53.686;10.094;2023-02-22T08:49:22;101318.00;;;8.52;100.00
19128;BME280;9696;53.686;10.094;2023-02-22T08:51:51;101316.50;;;8.73;100.00
19128;BME280;9696;53.686;10.094;2023-02-22T08:54:21;101316.59;;;8.84;100.00
19128;BME280;9696;53.686;10.094;2023-02-22T08:56:50;101312.31;;;8.83;100.00
19128;BME280;9696;53.686;10.094;2023-02-22T08:59:19;101314.84;;;8.72;100.00
19128;BME280;9696;53.686;10.094;2023-02-22T09:01:48;101315.75;;;8.84;100.00
19128;BME280;9696;53.686;10.094;2023-02-22T09:04:18;101313.06;;;8.73;100.00
19128;BME280;9696;53.686;10.094;2023-02-22T09:06:47;101314.28;;;8.92;100.00
19128;BME280;9696;53.686;10.094;2023-02-22T09:09:19;101299.41;;;8.93;100.00
19128;BME280;9696;53.686;10.094;2023-02-22T09:11:49;101302.81;;;9.19;100.00
19128;BME280;9696;53.686;10.094;2023-02-22T09:14:20;101298.13;;;9.35;100.00
19128;BME280;9696;53.686;10.094;2023-02-22T09:16:49;101304.16;;;9.24;100.00
19128;BME280;9696;53.686;10.094;2023-02-22T09:19:18;101296.00;;;9.16;100.00
19128;BME280;9696;53.686;10.094;2023-02-22T09:21:52;101299.91;;;9.11;100.00
19128;BME280;9696;53.686;10.094;2023-02-22T09:24:22;101307.53;;;9.14;100.00
19128;BME280;9696;53.686;10.094;2023-02-22T09:26:52;101293.47;;;9.51;100.00
19128;BME280;9696;53.686;10.094;2023-02-22T09:29:24;101303.16;;;9.38;100.00
19128;BME280;9696;53.686;10.094;2023-02-22T09:31:55;101299.47;;;9.40;100.00
19128;BME280;9696;53.686;10.094;2023-02-22T09:34:25;101302.38;;;9.48;100.00
19128;BME280;9696;53.686;10.094;2023-02-22T09:36:57;101285.19;;;9.44;100.00
19128;BME280;9696;53.686;10.094;2023-02-22T09:39:26;101300.81;;;9.46;100.00
19128;BME280;9696;53.686;10.094;2023-02-22T09:42:02;101299.25;;;9.43;100.00
19128;BME280;9696;53.686;10.094;2023-02-22T09:44:37;101306.66;;;9.26;100.00
19128;BME280;9696;53.686;10.094;2023-02-22T09:47:14;101299.69;;;9.37;100.00
19128;BME280;9696;53.686;10.094;2023-02-22T09:49:56;101295.75;;;9.32;100.00
19128;BME280;9696;53.686;10.094;2023-02-22T09:52:29;101295.66;;;9.44;100.00
19128;BME280;9696;53.686;10.094;2023-02-22T09:55:07;101304.53;;;9.31;100.00
19128;BME280;9696;53.686;10.094;2023-02-22T09:57:41;101299.53;;;9.28;100.00
19128;BME280;9696;53.686;10.094;2023-02-22T10:00:16;101292.44;;;9.41;100.00
19128;BME280;9696;53.686;10.094;2023-02-22T10:02:56;101293.41;;;9.40;100.00
19128;BME280;9696;53.686;10.094;2023-02-22T10:05:31;101307.47;;;9.26;100.00
19128;BME280;9696;53.686;10.094;2023-02-22T10:08:09;101294.91;;;9.31;100.00
19128;BME280;9696;53.686;10.094;2023-02-22T10:10:41;101301.25;;;9.16;100.00
19128;BME280;9696;53.686;10.094;2023-02-22T10:13:22;101293.78;;;9.23;100.00
19128;BME280;9696;53.686;10.094;2023-02-22T10:15:59;101294.66;;;9.11;100.00
19128;BME280;9696;53.686;10.094;2023-02-22T10:18:53;101295.59;;;9.10;100.00
19128;BME280;9696;53.686;10.094;2023-02-22T10:21:40;101294.22;;;9.17;100.00
19128;BME280;9696;53.686;10.094;2023-02-22T10:24:23;101283.09;;;9.26;100.00
19128;BME280;9696;53.686;10.094;2023-02-22T10:26:58;101283.97;;;9.14;100.00
19128;BME280;9696;53.686;10.094;2023-02-22T10:29:35;101287.66;;;9.11;100.00
19128;BME280;9696;53.686;10.094;2023-02-22T10:32:13;101277.16;;;9.24;100.00
19128;BME280;9696;53.686;10.094;2023-02-22T10:34:48;101281.75;;;9.20;100.00
19128;BME280;9696;53.686;10.094;2023-02-22T10:37:23;101276.06;;;9.26;100.00
19128;BME280;9696;53.686;10.094;2023-02-22T10:39:58;101274.41;;;9.25;100.00
19128;BME280;9696;53.686;10.094;2023-02-22T10:42:32;101280.31;;;9.16;100.00
19128;BME280;9696;53.686;10.094;2023-02-22T10:45:04;101267.09;;;9.18;100.00
19128;BME280;9696;53.686;10.094;2023-02-22T10:47:34;101268.94;;;9.28;100.00
19128;BME280;9696;53.686;10.094;2023-02-22T10:50:05;101274.56;;;9.11;100.00
19128;BME280;9696;53.686;10.094;2023-02-22T10:52:34;101263.25;;;9.11;100.00
19128;BME280;9696;53.686;10.094;2023-02-22T10:55:04;101265.56;;;9.15;100.00
19128;BME280;9696;53.686;10.094;2023-02-22T10:57:46;101263.59;;;9.30;100.00
19128;BME280;9696;53.686;10.094;2023-02-22T11:00:22;101254.75;;;9.20;100.00
19128;BME280;9696;53.686;10.094;2023-02-22T11:02:58;101244.44;;;9.29;100.00
19128;BME280;9696;53.686;10.094;2023-02-22T11:05:31;101249.06;;;9.26;100.00
19128;BME280;9696;53.686;10.094;2023-02-22T11:08:23;101242.97;;;9.49;100.00
19128;BME280;9696;53.686;10.094;2023-02-22T11:10:55;101240.59;;;9.46;100.00
19128;BME280;9696;53.686;10.094;2023-02-22T11:13:26;101243.25;;;9.33;100.00
19128;BME280;9696;53.686;10.094;2023-02-22T11:15:59;101243.44;;;9.78;100.00
19128;BME280;9696;53.686;10.094;2023-02-22T11:18:33;101235.13;;;9.49;100.00
19128;BME280;9696;53.686;10.094;2023-02-22T11:21:05;101240.25;;;9.97;100.00
19128;BME280;9696;53.686;10.094;2023-02-22T11:23:39;101213.84;;;10.11;100.00
19128;BME280;9696;53.686;10.094;2023-02-22T11:26:14;101211.31;;;9.87;100.00
19128;BME280;9696;53.686;10.094;2023-02-22T11:28:48;101217.19;;;10.24;100.00
19128;BME280;9696;53.686;10.094;2023-02-22T11:31:26;101198.63;;;10.38;100.00
19128;BME280;9696;53.686;10.094;2023-02-22T11:33:58;101198.75;;;10.36;100.00
19128;BME280;9696;53.686;10.094;2023-02-22T11:36:33;101186.19;;;10.51;100.00
19128;BME280;9696;53.686;10.094;2023-02-22T11:39:09;101199.81;;;10.45;100.00
19128;BME280;9696;53.686;10.094;2023-02-22T11:41:49;101182.66;;;10.30;100.00
19128;BME280;9696;53.686;10.094;2023-02-22T11:44:24;101182.03;;;10.60;100.00
19128;BME280;9696;53.686;10.094;2023-02-22T11:46:56;101177.94;;;10.67;100.00
19128;BME280;9696;53.686;10.094;2023-02-22T11:49:32;101174.88;;;10.62;100.00
19128;BME280;9696;53.686;10.094;2023-02-22T11:52:11;101183.38;;;10.97;100.00
19128;BME280;9696;53.686;10.094;2023-02-22T11:55:06;101182.38;;;11.09;100.00
19128;BME280;9696;53.686;10.094;2023-02-22T11:57:51;101176.38;;;10.75;100.00
19128;BME280;9696;53.686;10.094;2023-02-22T12:00:29;101172.00;;;10.65;100.00
19128;BME280;9696;53.686;10.094;2023-02-22T12:06:17;101167.84;;;11.37;100.00
19128;BME280;9696;53.686;10.094;2023-02-22T12:09:02;101174.38;;;11.11;100.00
19128;BME280;9696;53.686;10.094;2023-02-22T12:11:38;101170.88;;;10.78;100.00
19128;BME280;9696;53.686;10.094;2023-02-22T12:14:20;101165.53;;;10.80;100.00
19128;BME280;9696;53.686;10.094;2023-02-22T12:17:17;101162.19;;;11.21;100.00
19128;BME280;9696;53.686;10.094;2023-02-22T12:19:55;101158.81;;;10.87;100.00
19128;BME280;9696;53.686;10.094;2023-02-22T12:22:30;101158.56;;;11.01;100.00
19128;BME280;9696;53.686;10.094;2023-02-22T12:25:19;101138.28;;;11.24;100.00
19128;BME280;9696;53.686;10.094;2023-02-22T12:28:06;101153.47;;;11.41;100.00
19128;BME280;9696;53.686;10.094;2023-02-22T12:30:55;101137.06;;;11.28;100.00
19128;BME280;9696;53.686;10.094;2023-02-22T12:33:30;101148.63;;;11.05;100.00
19128;BME280;9696;53.686;10.094;2023-02-22T12:36:12;101133.31;;;11.42;100.00
19128;BME280;9696;53.686;10.094;2023-02-22T12:38:47;101134.16;;;11.10;100.00
19128;BME280;9696;53.686;10.094;2023-02-22T12:41:24;101122.72;;;11.32;100.00
19128;BME280;9696;53.686;10.094;2023-02-22T12:44:01;101127.59;;;11.57;100.00
19128;BME280;9696;53.686;10.094;2023-02-22T12:46:37;101125.19;;;11.54;100.00
19128;BME280;9696;53.686;10.094;2023-02-22T12:49:15;101126.03;;;11.55;100.00
19128;BME280;9696;53.686;10.094;2023-02-22T12:51:54;101123.56;;;11.32;100.00
19128;BME280;9696;53.686;10.094;2023-02-22T12:54:41;101120.41;;;11.18;100.00
19128;BME280;9696;53.686;10.094;2023-02-22T12:57:18;101124.88;;;11.27;100.00
19128;BME280;9696;53.686;10.094;2023-02-22T12:59:51;101121.75;;;11.54;100.00
19128;BME280;9696;53.686;10.094;2023-02-22T13:02:27;101128.09;;;11.30;100.00
19128;BME280;9696;53.686;10.094;2023-02-22T13:04:56;101125.91;;;11.15;100.00
19128;BME280;9696;53.686;10.094;2023-02-22T13:07:35;101116.94;;;11.38;100.00
19128;BME280;9696;53.686;10.094;2023-02-22T13:10:34;101111.94;;;11.56;100.00
19128;BME280;9696;53.686;10.094;2023-02-22T13:13:15;101101.09;;;11.70;100.00
19128;BME280;9696;53.686;10.094;2023-02-22T13:15:52;101105.94;;;11.65;100.00
19128;BME280;9696;53.686;10.094;2023-02-22T13:18:29;101111.25;;;11.74;100.00
19128;BME280;9696;53.686;10.094;2023-02-22T13:21:03;101112.34;;;11.72;100.00
19128;BME280;9696;53.686;10.094;2023-02-22T13:23:42;101101.69;;;11.73;100.00
19128;BME280;9696;53.686;10.094;2023-02-22T13:26:18;101111.66;;;11.28;100.00